createdAt,value
2022-09-26T00:01:43.199Z,12.47
2022-09-26T00:04:15.803Z,12.43
2022-09-26T00:06:47.689Z,12.35
2022-09-26T00:09:19.239Z,12.37
2022-09-26T00:11:51.027Z,12.41
2022-09-26T00:14:22.533Z,12.38
2022-09-26T00:16:54.085Z,12.35
2022-09-26T00:19:25.666Z,12.36
2022-09-26T00:21:57.502Z,12.36
2022-09-26T00:24:29.677Z,12.39
2022-09-26T00:27:01.624Z,12.38
2022-09-26T00:29:33.117Z,12.37
2022-09-26T00:32:04.964Z,12.32
2022-09-26T00:34:36.441Z,12.31
2022-09-26T00:37:08.309Z,12.28
2022-09-26T00:39:39.794Z,12.25
2022-09-26T00:42:11.763Z,10.34
2022-09-26T00:44:43.335Z,12.14
2022-09-26T00:47:15.299Z,12.12
2022-09-26T00:49:46.789Z,12.09
2022-09-26T00:52:18.617Z,12.08
2022-09-26T00:54:50.144Z,12.05
2022-09-26T00:57:21.641Z,12.03
2022-09-26T00:59:54.432Z,12.05
2022-09-26T01:02:26.546Z,12.03
2022-09-26T01:04:58.458Z,11.99
2022-09-26T01:07:30.273Z,12.00
2022-09-26T01:10:01.768Z,12.06
2022-09-26T01:12:33.627Z,12.09
2022-09-26T01:15:06.185Z,12.10
2022-09-26T01:17:38.216Z,12.14
2022-09-26T01:20:09.761Z,12.17
2022-09-26T01:22:41.746Z,12.17
2022-09-26T01:25:13.250Z,12.14
2022-09-26T01:27:45.276Z,12.15
2022-09-26T01:30:16.774Z,12.12
2022-09-26T01:32:51.894Z,12.12
2022-09-26T01:35:23.383Z,12.18
2022-09-26T01:37:55.185Z,12.20
2022-09-26T01:40:26.751Z,12.14
2022-09-26T01:43:00.499Z,12.12
2022-09-26T01:45:32.110Z,12.15
2022-09-26T01:48:04.010Z,12.14
2022-09-26T01:50:35.529Z,12.09
2022-09-26T01:53:07.341Z,12.09
2022-09-26T01:55:38.875Z,12.08
2022-09-26T01:58:10.772Z,12.09
2022-09-26T02:00:42.369Z,12.08
2022-09-26T02:03:14.250Z,12.11
2022-09-26T02:05:47.035Z,12.17
2022-09-26T02:08:18.891Z,12.16
2022-09-26T02:10:50.836Z,12.14
2022-09-26T02:13:22.365Z,12.13
2022-09-26T02:15:54.201Z,12.09
2022-09-26T02:18:25.730Z,12.10
2022-09-26T02:20:58.292Z,12.16
2022-09-26T02:23:29.806Z,12.12
2022-09-26T02:26:01.740Z,12.15
2022-09-26T02:28:33.213Z,12.17
2022-09-26T02:31:05.020Z,12.19
2022-09-26T02:33:36.570Z,12.16
2022-09-26T02:36:08.668Z,12.15
2022-09-26T02:38:40.153Z,12.15
2022-09-26T02:41:12.515Z,12.13
2022-09-26T02:43:44.552Z,12.11
2022-09-26T02:46:16.491Z,12.10
2022-09-26T02:48:48.040Z,12.03
2022-09-26T02:51:21.486Z,12.02
2022-09-26T02:53:52.993Z,12.02
2022-09-26T02:56:24.543Z,12.00
2022-09-26T02:58:59.617Z,12.01
2022-09-26T03:01:31.935Z,12.03
2022-09-26T03:04:03.485Z,12.04
2022-09-26T03:06:35.368Z,11.95
2022-09-26T03:09:11.414Z,11.94
2022-09-26T03:11:42.998Z,11.96
2022-09-26T03:14:14.823Z,11.95
2022-09-26T03:16:46.737Z,11.93
2022-09-26T03:19:19.269Z,11.78
2022-09-26T03:21:51.165Z,11.70
2022-09-26T03:24:22.737Z,11.67
2022-09-26T03:26:54.851Z,11.68
2022-09-26T03:29:26.451Z,11.53
2022-09-26T03:31:58.083Z,11.47
2022-09-26T03:34:29.651Z,11.51
2022-09-26T03:37:01.630Z,11.45
2022-09-26T03:39:33.127Z,11.55
2022-09-26T03:42:05.656Z,11.63
2022-09-26T03:44:37.137Z,11.58
2022-09-26T03:47:09.192Z,11.53
2022-09-26T03:49:40.699Z,11.48
2022-09-26T03:52:12.549Z,11.50
2022-09-26T03:54:44.812Z,11.63
2022-09-26T03:57:16.680Z,11.62
2022-09-26T03:59:48.222Z,11.58
2022-09-26T04:02:21.174Z,11.57
2022-09-26T04:04:52.704Z,11.58
2022-09-26T04:07:24.534Z,11.53
2022-09-26T04:09:56.066Z,11.58
2022-09-26T04:12:28.158Z,11.53
2022-09-26T04:14:59.676Z,11.42
2022-09-26T04:17:31.500Z,11.43
2022-09-26T04:20:03.014Z,11.39
2022-09-26T04:22:34.974Z,11.34
2022-09-26T04:25:06.512Z,11.35
2022-09-26T04:27:38.375Z,11.36
2022-09-26T04:30:11.769Z,11.25
2022-09-26T04:32:43.761Z,11.13
2022-09-26T04:35:15.258Z,11.10
2022-09-26T04:37:47.682Z,11.05
2022-09-26T04:40:19.317Z,10.99
2022-09-26T04:42:51.465Z,10.97
2022-09-26T04:45:23.039Z,10.93
2022-09-26T04:47:55.158Z,10.87
2022-09-26T04:50:26.713Z,10.83
2022-09-26T04:52:58.543Z,10.83
2022-09-26T04:55:30.056Z,10.81
2022-09-26T04:58:02.473Z,10.87
2022-09-26T05:00:34.024Z,10.83
2022-09-26T05:03:05.682Z,10.81
2022-09-26T05:05:37.209Z,10.79
2022-09-26T05:08:09.943Z,10.74
2022-09-26T05:10:41.486Z,10.73
2022-09-26T05:13:13.009Z,10.64
2022-09-26T05:15:44.489Z,10.63
2022-09-26T05:18:16.250Z,10.61
2022-09-26T05:20:48.449Z,10.55
2022-09-26T05:23:44.364Z,10.56
2022-09-26T05:26:22.797Z,10.59
2022-09-26T05:28:54.356Z,10.59
2022-09-26T05:31:28.967Z,10.57
2022-09-26T05:34:00.621Z,10.57
2022-09-26T05:36:32.136Z,10.57
2022-09-26T05:39:03.632Z,10.63
2022-09-26T05:41:35.464Z,10.70
2022-09-26T05:44:06.954Z,10.79
2022-09-26T05:46:39.253Z,10.84
2022-09-26T05:49:11.771Z,10.89
2022-09-26T05:51:43.671Z,10.98
2022-09-26T05:54:15.171Z,10.94
2022-09-26T05:56:46.986Z,11.00
2022-09-26T05:59:19.050Z,11.00
2022-09-26T06:01:51.051Z,11.02
2022-09-26T06:04:22.612Z,11.18
2022-09-26T06:06:54.136Z,11.27
2022-09-26T06:09:26.128Z,11.42
2022-09-26T06:11:57.662Z,11.45
2022-09-26T06:14:29.600Z,11.57
2022-09-26T06:17:01.197Z,11.68
2022-09-26T06:19:32.708Z,11.68
2022-09-26T06:22:04.262Z,11.83
2022-09-26T06:24:35.765Z,11.95
2022-09-26T06:27:07.659Z,12.02
2022-09-26T06:29:39.238Z,12.01
2022-09-26T06:32:11.145Z,12.03
2022-09-26T06:34:42.682Z,12.17
2022-09-26T06:37:14.921Z,11.97
2022-09-26T06:39:46.404Z,12.09
2022-09-26T06:42:18.204Z,12.16
2022-09-26T06:44:49.717Z,12.23
2022-09-26T06:47:21.530Z,12.46
2022-09-26T06:49:53.070Z,12.40
2022-09-26T06:52:24.612Z,12.69
2022-09-26T06:54:56.089Z,12.66
2022-09-26T06:57:27.646Z,12.81
2022-09-26T06:59:59.171Z,13.11
2022-09-26T07:02:30.757Z,13.36
2022-09-26T07:05:02.681Z,13.18
2022-09-26T07:07:34.194Z,13.25
2022-09-26T07:10:05.730Z,13.08
2022-09-26T07:12:44.317Z,12.98
2022-09-26T07:15:15.819Z,13.21
2022-09-26T07:17:48.176Z,13.17
2022-09-26T07:20:19.745Z,13.14
2022-09-26T07:22:51.245Z,13.25
2022-09-26T07:25:22.796Z,13.72
2022-09-26T07:27:54.279Z,13.86
2022-09-26T07:30:25.787Z,14.05
2022-09-26T07:32:57.290Z,14.30
2022-09-26T07:35:28.802Z,14.38
2022-09-26T07:38:00.299Z,14.51
2022-09-26T07:40:31.967Z,14.51
2022-09-26T07:43:19.032Z,14.44
2022-09-26T07:46:10.452Z,14.77
2022-09-26T07:49:00.874Z,14.80
2022-09-26T07:51:32.536Z,15.15
2022-09-26T07:54:04.016Z,15.34
2022-09-26T07:56:36.026Z,15.65
2022-09-26T07:59:07.519Z,15.23
2022-09-26T08:01:39.403Z,16.03
2022-09-26T08:04:11.230Z,16.25
2022-09-26T08:06:43.166Z,16.67
2022-09-26T08:09:14.928Z,16.42
2022-09-26T08:11:47.114Z,16.17
2022-09-26T08:14:18.632Z,15.93
2022-09-26T08:16:50.652Z,15.13
2022-09-26T08:19:23.027Z,14.73
2022-09-26T08:21:54.534Z,15.82
2022-09-26T08:24:26.088Z,16.04
2022-09-26T08:26:57.664Z,15.69
2022-09-26T08:29:30.943Z,16.14
2022-09-26T08:32:03.342Z,16.69
2022-09-26T08:34:35.077Z,16.60
2022-09-26T08:37:06.618Z,17.20
2022-09-26T08:39:38.313Z,16.62
2022-09-26T08:42:10.437Z,16.61
2022-09-26T08:44:42.133Z,17.09
2022-09-26T08:47:17.390Z,16.85
2022-09-26T08:49:50.305Z,16.41
2022-09-26T08:52:22.361Z,17.57
2022-09-26T08:54:53.862Z,17.44
2022-09-26T08:57:25.355Z,16.90
2022-09-26T08:59:57.368Z,16.30
2022-09-26T09:02:30.209Z,15.91
2022-09-26T09:05:01.872Z,15.99
2022-09-26T09:07:33.421Z,16.69
2022-09-26T09:10:05.285Z,17.00
2022-09-26T09:12:36.821Z,17.57
2022-09-26T09:15:26.648Z,18.34
2022-09-26T09:17:58.306Z,18.44
2022-09-26T09:20:30.258Z,18.11
2022-09-26T09:23:01.789Z,18.38
2022-09-26T09:25:33.319Z,18.72
2022-09-26T09:28:08.368Z,18.64
2022-09-26T09:30:40.290Z,18.42
2022-09-26T09:33:11.821Z,18.76
2022-09-26T09:35:43.331Z,19.09
2022-09-26T09:38:14.822Z,18.54
2022-09-26T09:40:46.396Z,18.82
2022-09-26T09:43:17.957Z,18.38
2022-09-26T09:45:49.515Z,18.72
2022-09-26T09:48:21.023Z,18.99
2022-09-26T09:50:52.568Z,19.67
2022-09-26T09:53:24.056Z,19.35
2022-09-26T09:55:55.579Z,19.94
2022-09-26T09:58:27.088Z,19.48
2022-09-26T10:00:59.392Z,19.53
2022-09-26T10:03:31.805Z,19.77
2022-09-26T10:06:03.323Z,19.84
2022-09-26T10:08:35.143Z,19.90
2022-09-26T10:11:08.602Z,19.97
2022-09-26T10:13:42.207Z,20.18
2022-09-26T10:16:15.244Z,20.75
2022-09-26T10:18:47.192Z,21.14
2022-09-26T10:21:19.598Z,20.91
2022-09-26T10:23:51.497Z,20.09
2022-09-26T10:26:25.511Z,20.65
2022-09-26T10:29:00.578Z,20.58
2022-09-26T10:31:32.142Z,19.13
2022-09-26T10:34:03.669Z,19.16
2022-09-26T10:36:35.219Z,18.82
2022-09-26T10:39:25.386Z,19.72
2022-09-26T10:41:57.742Z,19.87
2022-09-26T10:44:29.621Z,21.17
2022-09-26T10:47:05.251Z,20.80
2022-09-26T10:49:37.356Z,20.90
2022-09-26T10:52:09.206Z,19.84
2022-09-26T10:54:41.799Z,19.76
2022-09-26T10:57:14.082Z,19.73
2022-09-26T10:59:47.119Z,20.55
2022-09-26T11:02:19.861Z,19.50
2022-09-26T11:05:10.010Z,18.91
2022-09-26T11:07:42.717Z,18.82
2022-09-26T11:10:14.250Z,18.96
2022-09-26T11:12:45.790Z,18.38
2022-09-26T11:15:17.302Z,18.15
2022-09-26T11:17:48.975Z,18.17
2022-09-26T11:20:20.660Z,17.94
2022-09-26T11:22:53.237Z,17.73
2022-09-26T11:25:25.304Z,17.80
2022-09-26T11:27:56.857Z,17.87
2022-09-26T11:30:28.341Z,18.25
2022-09-26T11:33:00.382Z,18.52
2022-09-26T11:35:33.182Z,18.46
2022-09-26T11:38:05.753Z,18.70
2022-09-26T11:40:37.411Z,18.54
2022-09-26T11:43:09.078Z,18.84
2022-09-26T11:45:45.205Z,18.80
2022-09-26T11:48:19.087Z,18.79
2022-09-26T11:50:50.601Z,18.43
2022-09-26T11:53:22.119Z,18.30
2022-09-26T11:55:55.150Z,18.05
2022-09-26T11:58:26.660Z,17.97
2022-09-26T12:00:58.351Z,17.86
2022-09-26T12:03:33.293Z,17.69
2022-09-26T12:06:04.954Z,18.06
2022-09-26T12:08:37.039Z,18.63
2022-09-26T12:11:09.866Z,18.83
2022-09-26T12:13:41.487Z,18.80
2022-09-26T12:16:14.558Z,19.36
2022-09-26T12:18:46.775Z,18.89
2022-09-26T12:21:18.268Z,18.36
2022-09-26T12:23:50.496Z,18.20
2022-09-26T12:26:21.971Z,17.65
2022-09-26T12:28:53.750Z,18.29
2022-09-26T12:31:25.360Z,18.54
2022-09-26T12:33:56.924Z,18.56
2022-09-26T12:36:28.411Z,18.77
2022-09-26T12:39:00.221Z,18.58
2022-09-26T12:41:31.687Z,19.27
2022-09-26T12:44:03.492Z,19.80
2022-09-26T12:46:35.049Z,19.33
2022-09-26T12:49:07.859Z,19.21
2022-09-26T12:51:39.449Z,19.61
2022-09-26T12:54:10.939Z,19.13
2022-09-26T12:56:42.442Z,18.75
2022-09-26T12:59:14.319Z,18.17
2022-09-26T13:01:48.755Z,17.98
2022-09-26T13:04:20.873Z,17.70
2022-09-26T13:07:17.158Z,18.27
2022-09-26T13:09:47.326Z,18.05
2022-09-26T13:12:18.871Z,17.74
2022-09-26T13:14:50.881Z,17.54
2022-09-26T13:17:22.392Z,17.65
2022-09-26T13:19:54.283Z,17.42
2022-09-26T13:22:31.297Z,17.10
2022-09-26T13:25:02.819Z,17.21
2022-09-26T13:27:36.181Z,17.22
2022-09-26T13:30:08.275Z,17.43
2022-09-26T13:32:40.470Z,17.59
2022-09-26T13:35:12.425Z,17.63
2022-09-26T13:37:43.951Z,17.82
2022-09-26T13:40:16.485Z,18.16
2022-09-26T13:42:47.981Z,18.46
2022-09-26T13:45:19.505Z,19.22
2022-09-26T13:47:51.009Z,18.86
2022-09-26T13:50:25.680Z,18.67
2022-09-26T13:52:57.166Z,18.67
2022-09-26T13:55:29.965Z,18.78
2022-09-26T13:58:06.912Z,18.39
2022-09-26T14:00:41.547Z,18.21
2022-09-26T14:03:13.641Z,18.15
2022-09-26T14:05:46.346Z,18.18
2022-09-26T14:08:36.484Z,17.95
2022-09-26T14:11:08.466Z,18.24
2022-09-26T14:13:39.970Z,18.13
2022-09-26T14:16:13.296Z,17.85
2022-09-26T14:18:44.877Z,17.93
2022-09-26T14:21:16.354Z,17.69
2022-09-26T14:23:49.028Z,17.45
2022-09-26T14:26:21.144Z,17.43
2022-09-26T14:28:52.885Z,17.40
2022-09-26T14:31:24.657Z,17.35
2022-09-26T14:33:59.521Z,17.02
2022-09-26T14:36:31.146Z,16.82
2022-09-26T14:39:02.953Z,16.87
2022-09-26T14:41:35.684Z,16.85
2022-09-26T14:44:07.614Z,16.62
2022-09-26T14:46:39.205Z,16.62
2022-09-26T14:49:11.794Z,16.64
2022-09-26T14:51:43.291Z,16.61
2022-09-26T14:54:14.903Z,16.57
2022-09-26T14:56:46.514Z,16.56
2022-09-26T14:59:18.053Z,16.48
2022-09-26T15:01:49.578Z,16.40
2022-09-26T15:04:21.432Z,16.75
2022-09-26T15:06:52.928Z,16.75
2022-09-26T15:09:24.777Z,16.79
2022-09-26T15:11:56.274Z,16.78
2022-09-26T15:14:28.150Z,16.83
2022-09-26T15:16:59.645Z,16.67
2022-09-26T15:19:32.977Z,16.63
2022-09-26T15:22:04.470Z,16.65
2022-09-26T15:24:37.164Z,16.34
2022-09-26T15:27:08.733Z,16.39
2022-09-26T15:29:40.499Z,16.45
2022-09-26T15:32:12.054Z,16.29
2022-09-26T15:34:43.978Z,16.32
2022-09-26T15:37:15.530Z,16.36
2022-09-26T15:39:47.351Z,16.26
2022-09-26T15:42:37.817Z,16.44
2022-09-26T15:45:09.612Z,16.45
2022-09-26T15:47:41.157Z,16.40
2022-09-26T15:50:12.984Z,16.34
2022-09-26T15:52:44.507Z,16.30
2022-09-26T15:55:16.586Z,16.18
2022-09-26T15:57:48.063Z,16.12
2022-09-26T16:00:19.991Z,15.97
2022-09-26T16:02:51.504Z,15.94
2022-09-26T16:05:23.332Z,15.85
2022-09-26T16:07:58.211Z,15.58
2022-09-26T16:10:30.122Z,15.52
2022-09-26T16:13:01.588Z,15.49
2022-09-26T16:15:33.412Z,15.39
2022-09-26T16:18:04.982Z,15.34
2022-09-26T16:20:36.781Z,15.27
2022-09-26T16:23:08.554Z,15.25
2022-09-26T16:25:40.039Z,15.19
2022-09-26T16:28:12.076Z,15.13
2022-09-26T16:30:43.622Z,15.04
2022-09-26T16:33:15.543Z,14.97
2022-09-26T16:35:47.240Z,14.83
2022-09-26T16:38:19.104Z,14.78
2022-09-26T16:40:50.677Z,14.70
2022-09-26T16:43:24.383Z,14.62
2022-09-26T16:45:56.323Z,14.55
2022-09-26T16:48:28.161Z,14.48
2022-09-26T16:50:59.644Z,14.39
2022-09-26T16:53:31.428Z,14.33
2022-09-26T16:56:03.163Z,14.25
2022-09-26T16:58:35.113Z,14.17
2022-09-26T17:01:25.232Z,14.10
2022-09-26T17:03:57.767Z,14.03
2022-09-26T17:06:30.330Z,13.98
2022-09-26T17:09:05.101Z,13.88
2022-09-26T17:11:37.132Z,13.85
2022-09-26T17:14:09.185Z,13.81
2022-09-26T17:16:40.788Z,13.72
2022-09-26T17:19:12.560Z,13.69
2022-09-26T17:21:45.242Z,13.66
2022-09-26T17:24:17.119Z,13.65
2022-09-26T17:26:48.687Z,13.61
2022-09-26T17:29:20.717Z,13.52
2022-09-26T17:31:52.203Z,13.48
2022-09-26T17:34:23.975Z,13.41
2022-09-26T17:36:55.661Z,13.38
2022-09-26T17:39:27.657Z,13.38
2022-09-26T17:41:59.293Z,13.29
2022-09-26T17:44:33.058Z,13.31
2022-09-26T17:47:05.201Z,13.29
2022-09-26T17:49:36.932Z,13.27
2022-09-26T17:52:08.396Z,13.22
2022-09-26T17:54:42.999Z,13.17
2022-09-26T17:57:14.946Z,13.14
2022-09-26T17:59:46.727Z,13.08
2022-09-26T18:02:18.360Z,13.07
2022-09-26T18:04:52.593Z,13.05
2022-09-26T18:07:24.322Z,13.05
2022-09-26T18:09:56.317Z,13.06
2022-09-26T18:12:27.842Z,13.03
2022-09-26T18:15:00.266Z,12.98
2022-09-26T18:17:42.496Z,12.96
2022-09-26T18:20:13.999Z,12.91
2022-09-26T18:22:45.826Z,12.89
2022-09-26T18:25:18.962Z,12.87
2022-09-26T18:27:53.620Z,12.83
2022-09-26T18:30:25.574Z,12.78
2022-09-26T18:32:57.383Z,12.75
2022-09-26T18:35:29.877Z,12.71
2022-09-26T18:38:01.775Z,12.69
2022-09-26T18:40:33.363Z,12.68
2022-09-26T18:43:05.005Z,12.67
2022-09-26T18:45:36.608Z,12.63
2022-09-26T18:48:08.615Z,12.62
2022-09-26T18:50:40.143Z,12.56
2022-09-26T18:53:11.943Z,12.58
2022-09-26T18:56:02.482Z,12.62
2022-09-26T18:58:34.697Z,12.57
2022-09-26T19:01:06.978Z,12.62
2022-09-26T19:03:39.170Z,12.60
2022-09-26T19:06:11.758Z,12.65
2022-09-26T19:08:43.996Z,12.59
2022-09-26T19:11:15.519Z,12.64
2022-09-26T19:13:48.144Z,12.62
2022-09-26T19:16:19.821Z,12.59
2022-09-26T19:18:51.717Z,11.94
2022-09-26T19:21:23.272Z,12.58
2022-09-26T19:23:55.163Z,12.62
2022-09-26T19:26:26.658Z,12.64
2022-09-26T19:28:58.665Z,12.61
2022-09-26T19:31:30.253Z,12.60
2022-09-26T19:34:02.210Z,12.56
2022-09-26T19:36:33.699Z,12.53
2022-09-26T19:39:05.556Z,12.49
2022-09-26T19:41:37.047Z,12.55
2022-09-26T19:44:08.609Z,12.49
2022-09-26T19:46:40.189Z,12.49
2022-09-26T19:49:12.068Z,12.46
2022-09-26T19:51:43.643Z,12.46
2022-09-26T19:54:15.802Z,12.45
2022-09-26T19:56:47.580Z,12.39
2022-09-26T19:59:21.351Z,12.43
2022-09-26T20:01:56.200Z,12.41
2022-09-26T20:04:29.857Z,12.39
2022-09-26T20:07:01.467Z,12.37
2022-09-26T20:09:33.380Z,12.37
2022-09-26T20:12:04.897Z,12.36
2022-09-26T20:14:36.701Z,12.31
2022-09-26T20:17:08.410Z,12.32
2022-09-26T20:19:40.368Z,12.26
2022-09-26T20:22:11.850Z,12.24
2022-09-26T20:24:44.201Z,12.28
2022-09-26T20:27:15.724Z,12.30
2022-09-26T20:30:06.463Z,12.28
2022-09-26T20:32:37.945Z,12.26
2022-09-26T20:35:11.097Z,12.23
2022-09-26T20:37:42.625Z,12.20
2022-09-26T20:40:14.569Z,12.23
2022-09-26T20:42:46.106Z,12.25
2022-09-26T20:45:17.979Z,12.23
2022-09-26T20:47:49.499Z,12.27
2022-09-26T20:50:36.280Z,12.25
2022-09-26T20:53:11.379Z,12.24
2022-09-26T20:55:44.302Z,12.29
2022-09-26T20:58:16.345Z,12.28
2022-09-26T21:00:47.924Z,12.33
2022-09-26T21:03:22.152Z,12.28
2022-09-26T21:05:53.693Z,12.31
2022-09-26T21:08:25.685Z,12.34
2022-09-26T21:10:57.825Z,12.33
2022-09-26T21:13:29.755Z,12.28
2022-09-26T21:16:01.237Z,12.26
2022-09-26T21:18:33.126Z,12.23
2022-09-26T21:21:04.721Z,12.19
2022-09-26T21:23:36.509Z,12.25
2022-09-26T21:26:08.044Z,12.24
2022-09-26T21:28:39.950Z,12.17
2022-09-26T21:31:11.513Z,12.19
2022-09-26T21:33:43.425Z,12.17
2022-09-26T21:36:14.917Z,12.12
2022-09-26T21:38:46.712Z,12.13
2022-09-26T21:41:18.209Z,12.15
2022-09-26T21:43:50.048Z,12.18
2022-09-26T21:46:21.627Z,12.12
2022-09-26T21:48:53.587Z,12.15
2022-09-26T21:51:25.103Z,12.13
2022-09-26T21:53:56.957Z,12.15
2022-09-26T21:56:28.848Z,12.15
2022-09-26T21:59:00.849Z,12.15
2022-09-26T22:01:32.372Z,12.18
2022-09-26T22:04:04.292Z,12.17
2022-09-26T22:06:35.818Z,12.17
2022-09-26T22:09:07.640Z,12.17
2022-09-26T22:11:39.308Z,12.16
2022-09-26T22:14:11.089Z,12.16
2022-09-26T22:16:42.880Z,12.18
2022-09-26T22:19:15.155Z,12.15
2022-09-26T22:21:46.735Z,12.17
2022-09-26T22:24:18.719Z,12.16
2022-09-26T22:26:50.688Z,12.19
2022-09-26T22:29:22.582Z,12.20
2022-09-26T22:31:54.082Z,12.19
2022-09-26T22:34:28.929Z,12.20
2022-09-26T22:37:00.470Z,12.23
2022-09-26T22:39:32.895Z,12.23
2022-09-26T22:42:04.720Z,12.20
2022-09-26T22:44:36.203Z,12.18
2022-09-26T22:47:07.772Z,12.16
2022-09-26T22:49:39.259Z,12.13
2022-09-26T22:52:11.127Z,12.13
2022-09-26T22:54:42.629Z,12.14
2022-09-26T22:57:14.474Z,12.10
2022-09-26T22:59:45.994Z,12.10
2022-09-26T23:02:17.878Z,12.15
2022-09-26T23:04:49.528Z,12.15
2022-09-26T23:07:21.640Z,12.16
2022-09-26T23:09:53.146Z,12.13
2022-09-26T23:12:24.664Z,12.14
2022-09-26T23:14:56.168Z,12.09
2022-09-26T23:17:28.002Z,12.08
2022-09-26T23:19:59.497Z,12.13
2022-09-26T23:22:31.444Z,12.11
2022-09-26T23:25:03.004Z,12.07
2022-09-26T23:27:34.817Z,12.12
2022-09-26T23:30:06.381Z,12.09
2022-09-26T23:32:38.218Z,12.07
2022-09-26T23:35:09.720Z,12.08
2022-09-26T23:37:41.520Z,12.05
2022-09-26T23:40:13.080Z,12.04
2022-09-26T23:42:45.093Z,12.04
2022-09-26T23:45:16.625Z,12.02
2022-09-26T23:47:49.150Z,12.05
2022-09-26T23:50:20.704Z,12.01
2022-09-26T23:52:52.561Z,12.03
2022-09-26T23:55:24.036Z,12.05
2022-09-26T23:57:55.946Z,12.01
